sensor_id;sensor_type;location;lat;lon;timestamp;pressure;altitude;pressure_sealevel;temperature;humidity
19128;BME280;9696;53.686;10.094;2023-03-19T00:01:10;100978.25;;;10.28;100.00
19128;BME280;9696;53.686;10.094;2023-03-19T00:03:41;100977.94;;;10.22;100.00
19128;BME280;9696;53.686;10.094;2023-03-19T00:06:10;100984.44;;;10.27;100.00
19128;BME280;9696;53.686;10.094;2023-03-19T00:08:39;100983.03;;;10.23;100.00
19128;BME280;9696;53.686;10.094;2023-03-19T00:11:10;100989.13;;;10.13;100.00
19128;BME280;9696;53.686;10.094;2023-03-19T00:13:40;100986.38;;;10.14;100.00
19128;BME280;9696;53.686;10.094;2023-03-19T00:16:09;100991.28;;;10.19;100.00
19128;BME280;9696;53.686;10.094;2023-03-19T00:18:39;100994.34;;;10.24;100.00
19128;BME280;9696;53.686;10.094;2023-03-19T00:21:08;100991.00;;;10.33;100.00
19128;BME280;9696;53.686;10.094;2023-03-19T00:23:37;100986.06;;;10.51;100.00
19128;BME280;9696;53.686;10.094;2023-03-19T00:26:07;100991.66;;;10.46;100.00
19128;BME280;9696;53.686;10.094;2023-03-19T00:28:37;100990.22;;;10.53;100.00
19128;BME280;9696;53.686;10.094;2023-03-19T00:31:08;100990.66;;;10.58;100.00
19128;BME280;9696;53.686;10.094;2023-03-19T00:33:39;100990.66;;;10.58;100.00
19128;BME280;9696;53.686;10.094;2023-03-19T00:36:10;100985.91;;;10.52;100.00
19128;BME280;9696;53.686;10.094;2023-03-19T00:38:40;100989.88;;;10.67;100.00
19128;BME280;9696;53.686;10.094;2023-03-19T00:41:09;100986.50;;;10.76;100.00
19128;BME280;9696;53.686;10.094;2023-03-19T00:43:39;100990.66;;;10.58;100.00
19128;BME280;9696;53.686;10.094;2023-03-19T00:46:08;100991.03;;;10.54;100.00
19128;BME280;9696;53.686;10.094;2023-03-19T00:48:39;100998.56;;;10.47;100.00
19128;BME280;9696;53.686;10.094;2023-03-19T00:51:09;100994.94;;;10.38;100.00
19128;BME280;9696;53.686;10.094;2023-03-19T00:53:40;100994.47;;;10.33;100.00
19128;BME280;9696;53.686;10.094;2023-03-19T00:56:11;101001.03;;;10.28;100.00
19128;BME280;9696;53.686;10.094;2023-03-19T00:58:40;100999.28;;;10.17;100.00
19128;BME280;9696;53.686;10.094;2023-03-19T01:01:11;100999.97;;;10.08;100.00
19128;BME280;9696;53.686;10.094;2023-03-19T01:03:44;101006.66;;;10.01;100.00
19128;BME280;9696;53.686;10.094;2023-03-19T01:06:14;101013.09;;;9.97;100.00
19128;BME280;9696;53.686;10.094;2023-03-19T01:08:43;101009.06;;;9.93;100.00
19128;BME280;9696;53.686;10.094;2023-03-19T01:11:14;101013.81;;;9.99;100.00
19128;BME280;9696;53.686;10.094;2023-03-19T01:13:44;101012.22;;;10.08;100.00
19128;BME280;9696;53.686;10.094;2023-03-19T01:16:13;101013.22;;;10.07;100.00
19128;BME280;9696;53.686;10.094;2023-03-19T01:18:44;101007.59;;;10.11;100.00
19128;BME280;9696;53.686;10.094;2023-03-19T01:21:13;101017.25;;;10.22;100.00
19128;BME280;9696;53.686;10.094;2023-03-19T01:23:46;101009.75;;;10.17;100.00
19128;BME280;9696;53.686;10.094;2023-03-19T01:26:16;101008.09;;;9.94;100.00
19128;BME280;9696;53.686;10.094;2023-03-19T01:28:46;101003.13;;;9.69;100.00
19128;BME280;9696;53.686;10.094;2023-03-19T01:31:15;101004.78;;;9.81;100.00
19128;BME280;9696;53.686;10.094;2023-03-19T01:34:18;101005.75;;;9.69;100.00
19128;BME280;9696;53.686;10.094;2023-03-19T01:36:52;101008.13;;;9.72;100.00
19128;BME280;9696;53.686;10.094;2023-03-19T01:39:28;101006.47;;;9.71;100.00
19128;BME280;9696;53.686;10.094;2023-03-19T01:42:00;100998.63;;;9.71;100.00
19128;BME280;9696;53.686;10.094;2023-03-19T01:44:56;101002.19;;;9.70;100.00
19128;BME280;9696;53.686;10.094;2023-03-19T01:47:44;100999.22;;;9.63;100.00
19128;BME280;9696;53.686;10.094;2023-03-19T01:50:27;100997.88;;;9.69;100.00
19128;BME280;9696;53.686;10.094;2023-03-19T01:53:20;100996.25;;;9.68;100.00
19128;BME280;9696;53.686;10.094;2023-03-19T01:56:01;101000.41;;;9.59;100.00
19128;BME280;9696;53.686;10.094;2023-03-19T01:58:39;101001.59;;;9.55;100.00
19128;BME280;9696;53.686;10.094;2023-03-19T02:01:38;100985.31;;;9.52;100.00
19128;BME280;9696;53.686;10.094;2023-03-19T02:04:16;100988.50;;;9.55;100.00
19128;BME280;9696;53.686;10.094;2023-03-19T02:06:48;100982.88;;;9.48;100.00
19128;BME280;9696;53.686;10.094;2023-03-19T02:09:17;100987.09;;;9.51;100.00
19128;BME280;9696;53.686;10.094;2023-03-19T02:11:47;100984.31;;;9.53;100.00
19128;BME280;9696;53.686;10.094;2023-03-19T02:14:16;100980.75;;;9.54;100.00
19128;BME280;9696;53.686;10.094;2023-03-19T02:16:45;100989.31;;;9.44;100.00
19128;BME280;9696;53.686;10.094;2023-03-19T02:19:18;100987.78;;;9.31;100.00
19128;BME280;9696;53.686;10.094;2023-03-19T02:21:52;100982.56;;;9.31;100.00
19128;BME280;9696;53.686;10.094;2023-03-19T02:24:27;100989.91;;;9.37;100.00
19128;BME280;9696;53.686;10.094;2023-03-19T02:27:07;100989.47;;;9.32;100.00
19128;BME280;9696;53.686;10.094;2023-03-19T02:29:40;100991.59;;;9.27;100.00
19128;BME280;9696;53.686;10.094;2023-03-19T02:32:09;100997.41;;;9.19;100.00
19128;BME280;9696;53.686;10.094;2023-03-19T02:34:40;100992.50;;;9.04;100.00
19128;BME280;9696;53.686;10.094;2023-03-19T02:37:13;100995.91;;;8.93;100.00
19128;BME280;9696;53.686;10.094;2023-03-19T02:39:50;100996.28;;;8.88;100.00
19128;BME280;9696;53.686;10.094;2023-03-19T02:42:25;100991.63;;;8.81;100.00
19128;BME280;9696;53.686;10.094;2023-03-19T02:44:57;100999.13;;;8.85;100.00
19128;BME280;9696;53.686;10.094;2023-03-19T02:47:26;101000.03;;;8.73;100.00
19128;BME280;9696;53.686;10.094;2023-03-19T02:49:55;101001.78;;;8.62;100.00
19128;BME280;9696;53.686;10.094;2023-03-19T02:52:25;100996.53;;;8.62;100.00
19128;BME280;9696;53.686;10.094;2023-03-19T02:54:54;100992.31;;;8.72;100.00
19128;BME280;9696;53.686;10.094;2023-03-19T02:57:25;100993.78;;;8.52;100.00
19128;BME280;9696;53.686;10.094;2023-03-19T02:59:55;100993.28;;;8.47;100.00
19128;BME280;9696;53.686;10.094;2023-03-19T03:02:24;100989.44;;;8.64;100.00
19128;BME280;9696;53.686;10.094;2023-03-19T03:04:54;100996.00;;;8.45;100.00
19128;BME280;9696;53.686;10.094;2023-03-19T03:07:25;100991.81;;;8.32;100.00
19128;BME280;9696;53.686;10.094;2023-03-19T03:09:54;100993.50;;;8.20;100.00
19128;BME280;9696;53.686;10.094;2023-03-19T03:12:24;100994.56;;;8.18;100.00
19128;BME280;9696;53.686;10.094;2023-03-19T03:14:54;100991.31;;;8.14;100.00
19128;BME280;9696;53.686;10.094;2023-03-19T03:17:23;101002.59;;;8.15;100.00
19128;BME280;9696;53.686;10.094;2023-03-19T03:19:52;100995.28;;;8.43;100.00
19128;BME280;9696;53.686;10.094;2023-03-19T03:22:21;100985.28;;;8.14;100.00
19128;BME280;9696;53.686;10.094;2023-03-19T03:24:51;100991.38;;;8.01;100.00
19128;BME280;9696;53.686;10.094;2023-03-19T03:27:20;100999.50;;;7.73;100.00
19128;BME280;9696;53.686;10.094;2023-03-19T03:29:50;100999.72;;;7.70;100.00
19128;BME280;9696;53.686;10.094;2023-03-19T03:32:19;100997.44;;;7.66;100.00
19128;BME280;9696;53.686;10.094;2023-03-19T03:34:49;101002.44;;;7.56;100.00
19128;BME280;9696;53.686;10.094;2023-03-19T03:37:18;100999.00;;;7.55;100.00
19128;BME280;9696;53.686;10.094;2023-03-19T03:39:47;100999.63;;;7.59;100.00
19128;BME280;9696;53.686;10.094;2023-03-19T03:42:17;100998.28;;;7.66;100.00
19128;BME280;9696;53.686;10.094;2023-03-19T03:44:46;101001.25;;;7.85;100.00
19128;BME280;9696;53.686;10.094;2023-03-19T03:47:17;100991.72;;;7.97;100.00
19128;BME280;9696;53.686;10.094;2023-03-19T03:49:46;100998.94;;;7.93;100.00
19128;BME280;9696;53.686;10.094;2023-03-19T03:52:15;100993.53;;;8.07;100.00
19128;BME280;9696;53.686;10.094;2023-03-19T03:54:45;100990.97;;;8.19;100.00
19128;BME280;9696;53.686;10.094;2023-03-19T03:57:14;100987.81;;;8.26;100.00
19128;BME280;9696;53.686;10.094;2023-03-19T03:59:43;100990.72;;;8.34;100.00
19128;BME280;9696;53.686;10.094;2023-03-19T04:02:12;100984.25;;;8.27;100.00
19128;BME280;9696;53.686;10.094;2023-03-19T04:04:44;100990.72;;;8.34;100.00
19128;BME280;9696;53.686;10.094;2023-03-19T04:07:14;100988.03;;;8.36;100.00
19128;BME280;9696;53.686;10.094;2023-03-19T04:09:49;100995.53;;;8.40;100.00
19128;BME280;9696;53.686;10.094;2023-03-19T04:12:18;100991.34;;;8.38;100.00
19128;BME280;9696;53.686;10.094;2023-03-19T04:14:47;101005.38;;;8.37;100.00
19128;BME280;9696;53.686;10.094;2023-03-19T04:17:17;100996.09;;;8.33;100.00
19128;BME280;9696;53.686;10.094;2023-03-19T04:19:47;100991.47;;;8.36;100.00
19128;BME280;9696;53.686;10.094;2023-03-19T04:22:17;101001.00;;;8.37;100.00
19128;BME280;9696;53.686;10.094;2023-03-19T04:24:46;100992.91;;;8.40;100.00
19128;BME280;9696;53.686;10.094;2023-03-19T04:27:15;100993.53;;;8.44;100.00
19128;BME280;9696;53.686;10.094;2023-03-19T04:29:45;101001.50;;;8.53;100.00
19128;BME280;9696;53.686;10.094;2023-03-19T04:32:16;101001.78;;;8.62;100.00
19128;BME280;9696;53.686;10.094;2023-03-19T04:34:47;100999.06;;;8.63;100.00
19128;BME280;9696;53.686;10.094;2023-03-19T04:37:17;101000.75;;;8.75;100.00
19128;BME280;9696;53.686;10.094;2023-03-19T04:39:49;101002.66;;;8.73;100.00
19128;BME280;9696;53.686;10.094;2023-03-19T04:42:18;101002.50;;;8.64;100.00
19128;BME280;9696;53.686;10.094;2023-03-19T04:45:05;101001.16;;;8.58;100.00
19128;BME280;9696;53.686;10.094;2023-03-19T04:47:35;100996.41;;;8.52;100.00
19128;BME280;9696;53.686;10.094;2023-03-19T04:50:07;100995.38;;;8.66;100.00
19128;BME280;9696;53.686;10.094;2023-03-19T04:52:36;101000.59;;;8.66;100.00
19128;BME280;9696;53.686;10.094;2023-03-19T04:55:07;100995.03;;;8.70;100.00
19128;BME280;9696;53.686;10.094;2023-03-19T04:57:48;100991.59;;;8.70;100.00
19128;BME280;9696;53.686;10.094;2023-03-19T05:00:20;101001.00;;;8.72;100.00
19128;BME280;9696;53.686;10.094;2023-03-19T05:02:49;101000.44;;;8.80;100.00
19128;BME280;9696;53.686;10.094;2023-03-19T05:05:20;101003.03;;;8.80;100.00
19128;BME280;9696;53.686;10.094;2023-03-19T05:07:49;101000.69;;;8.88;100.00
19128;BME280;9696;53.686;10.094;2023-03-19T05:10:18;100993.94;;;8.96;100.00
19128;BME280;9696;53.686;10.094;2023-03-19T05:12:48;101003.06;;;8.91;100.00
19128;BME280;9696;53.686;10.094;2023-03-19T05:15:17;101006.63;;;9.01;100.00
19128;BME280;9696;53.686;10.094;2023-03-19T05:17:57;101012.13;;;9.09;100.00
19128;BME280;9696;53.686;10.094;2023-03-19T05:20:39;101012.03;;;9.11;100.00
19128;BME280;9696;53.686;10.094;2023-03-19T05:23:17;101004.41;;;9.08;100.00
19128;BME280;9696;53.686;10.094;2023-03-19T05:25:56;101015.34;;;9.13;100.00
19128;BME280;9696;53.686;10.094;2023-03-19T05:28:45;101007.75;;;9.21;100.00
19128;BME280;9696;53.686;10.094;2023-03-19T05:31:18;101011.19;;;9.21;100.00
19128;BME280;9696;53.686;10.094;2023-03-19T05:33:51;101008.47;;;9.23;100.00
19128;BME280;9696;53.686;10.094;2023-03-19T05:36:22;101012.19;;;9.20;100.00
19128;BME280;9696;53.686;10.094;2023-03-19T05:38:57;101004.53;;;9.17;100.00
19128;BME280;9696;53.686;10.094;2023-03-19T05:41:33;101005.84;;;9.12;100.00
19128;BME280;9696;53.686;10.094;2023-03-19T05:44:05;101006.19;;;9.07;100.00
19128;BME280;9696;53.686;10.094;2023-03-19T05:46:54;101005.69;;;9.02;100.00
19128;BME280;9696;53.686;10.094;2023-03-19T05:49:26;101010.50;;;9.08;100.00
19128;BME280;9696;53.686;10.094;2023-03-19T05:51:57;101004.41;;;9.08;100.00
19128;BME280;9696;53.686;10.094;2023-03-19T05:54:26;101006.31;;;9.06;100.00
19128;BME280;9696;53.686;10.094;2023-03-19T05:57:03;101001.19;;;9.04;100.00
19128;BME280;9696;53.686;10.094;2023-03-19T05:59:42;101002.97;;;9.04;100.00
19128;BME280;9696;53.686;10.094;2023-03-19T06:02:40;101005.97;;;9.10;100.00
19128;BME280;9696;53.686;10.094;2023-03-19T06:05:25;101011.00;;;9.24;100.00
19128;BME280;9696;53.686;10.094;2023-03-19T06:08:00;101011.59;;;9.28;100.00
19128;BME280;9696;53.686;10.094;2023-03-19T06:10:52;101003.59;;;9.29;100.00
19128;BME280;9696;53.686;10.094;2023-03-19T06:13:22;101006.72;;;9.34;100.00
19128;BME280;9696;53.686;10.094;2023-03-19T06:15:57;101011.47;;;9.40;100.00
19128;BME280;9696;53.686;10.094;2023-03-19T06:18:56;101011.22;;;9.32;100.00
19128;BME280;9696;53.686;10.094;2023-03-19T06:21:25;101020.03;;;9.31;100.00
19128;BME280;9696;53.686;10.094;2023-03-19T06:24:00;101026.56;;;9.37;100.00
19128;BME280;9696;53.686;10.094;2023-03-19T06:26:34;101021.72;;;9.43;100.00
19128;BME280;9696;53.686;10.094;2023-03-19T06:29:10;101027.75;;;9.33;100.00
19128;BME280;9696;53.686;10.094;2023-03-19T06:31:40;101028.84;;;9.41;100.00
19128;BME280;9696;53.686;10.094;2023-03-19T06:34:18;101027.78;;;9.44;100.00
19128;BME280;9696;53.686;10.094;2023-03-19T06:36:48;101034.22;;;9.40;100.00
19128;BME280;9696;53.686;10.094;2023-03-19T06:39:19;101036.59;;;9.43;100.00
19128;BME280;9696;53.686;10.094;2023-03-19T06:41:48;101037.44;;;9.43;100.00
19128;BME280;9696;53.686;10.094;2023-03-19T06:44:21;101036.09;;;9.49;100.00
19128;BME280;9696;53.686;10.094;2023-03-19T06:46:51;101044.34;;;9.56;100.00
19128;BME280;9696;53.686;10.094;2023-03-19T06:49:21;101039.19;;;9.65;100.00
19128;BME280;9696;53.686;10.094;2023-03-19T06:51:50;101042.31;;;9.70;100.00
19128;BME280;9696;53.686;10.094;2023-03-19T06:54:21;101043.59;;;9.76;100.00
19128;BME280;9696;53.686;10.094;2023-03-19T06:56:50;101045.50;;;9.85;100.00
19128;BME280;9696;53.686;10.094;2023-03-19T06:59:19;101047.53;;;9.92;100.00
19128;BME280;9696;53.686;10.094;2023-03-19T07:01:49;101053.47;;;10.06;100.00
19128;BME280;9696;53.686;10.094;2023-03-19T07:04:19;101049.06;;;10.06;100.00
19128;BME280;9696;53.686;10.094;2023-03-19T07:06:50;101054.19;;;9.97;100.00
19128;BME280;9696;53.686;10.094;2023-03-19T07:09:21;101060.50;;;10.05;100.00
19128;BME280;9696;53.686;10.094;2023-03-19T07:11:51;101056.34;;;10.03;100.00
19128;BME280;9696;53.686;10.094;2023-03-19T07:14:22;101063.22;;;10.04;100.00
19128;BME280;9696;53.686;10.094;2023-03-19T07:16:52;101066.69;;;10.37;100.00
19128;BME280;9696;53.686;10.094;2023-03-19T07:19:22;101064.00;;;10.49;100.00
19128;BME280;9696;53.686;10.094;2023-03-19T07:21:52;101060.44;;;10.50;100.00
19128;BME280;9696;53.686;10.094;2023-03-19T07:24:24;101063.13;;;10.91;100.00
19128;BME280;9696;53.686;10.094;2023-03-19T07:26:54;101063.69;;;10.95;100.00
19128;BME280;9696;53.686;10.094;2023-03-19T07:29:24;101060.53;;;11.12;100.00
19128;BME280;9696;53.686;10.094;2023-03-19T07:31:53;101059.25;;;10.85;100.00
19128;BME280;9696;53.686;10.094;2023-03-19T07:34:23;101053.16;;;10.85;100.00
19128;BME280;9696;53.686;10.094;2023-03-19T07:36:53;101055.19;;;10.81;100.00
19128;BME280;9696;53.686;10.094;2023-03-19T07:39:23;101058.34;;;10.96;100.00
19128;BME280;9696;53.686;10.094;2023-03-19T07:41:53;101056.44;;;10.98;100.00
19128;BME280;9696;53.686;10.094;2023-03-19T07:44:23;101066.41;;;11.04;100.00
19128;BME280;9696;53.686;10.094;2023-03-19T07:46:52;101073.59;;;11.23;100.00
19128;BME280;9696;53.686;10.094;2023-03-19T07:49:22;101069.06;;;11.25;100.00
19128;BME280;9696;53.686;10.094;2023-03-19T07:51:52;101078.53;;;11.37;100.00
19128;BME280;9696;53.686;10.094;2023-03-19T07:54:22;101071.09;;;12.03;100.00
19128;BME280;9696;53.686;10.094;2023-03-19T07:56:51;101084.38;;;12.01;100.00
19128;BME280;9696;53.686;10.094;2023-03-19T07:59:20;101083.63;;;11.90;100.00
19128;BME280;9696;53.686;10.094;2023-03-19T08:01:50;101079.19;;;12.20;100.00
19128;BME280;9696;53.686;10.094;2023-03-19T08:04:19;101077.94;;;12.15;100.00
19128;BME280;9696;53.686;10.094;2023-03-19T08:06:48;101081.59;;;12.43;100.00
19128;BME280;9696;53.686;10.094;2023-03-19T08:09:17;101086.88;;;12.81;100.00
19128;BME280;9696;53.686;10.094;2023-03-19T08:11:47;101081.88;;;12.68;100.00
19128;BME280;9696;53.686;10.094;2023-03-19T08:14:17;101078.28;;;12.89;100.00
19128;BME280;9696;53.686;10.094;2023-03-19T08:16:49;101074.81;;;13.36;100.00
19128;BME280;9696;53.686;10.094;2023-03-19T08:19:18;101079.28;;;13.07;100.00
19128;BME280;9696;53.686;10.094;2023-03-19T08:21:47;101078.56;;;13.24;100.00
19128;BME280;9696;53.686;10.094;2023-03-19T08:24:16;101082.75;;;13.17;100.00
19128;BME280;9696;53.686;10.094;2023-03-19T08:26:48;101089.41;;;13.31;100.00
19128;BME280;9696;53.686;10.094;2023-03-19T08:29:17;101093.50;;;13.52;100.00
19128;BME280;9696;53.686;10.094;2023-03-19T08:31:46;101093.41;;;13.35;100.00
19128;BME280;9696;53.686;10.094;2023-03-19T08:34:15;101090.31;;;13.39;100.00
19128;BME280;9696;53.686;10.094;2023-03-19T08:36:44;101093.97;;;13.29;100.00
19128;BME280;9696;53.686;10.094;2023-03-19T08:39:14;101096.56;;;13.48;100.00
19128;BME280;9696;53.686;10.094;2023-03-19T08:41:43;101105.34;;;13.10;100.00
19128;BME280;9696;53.686;10.094;2023-03-19T08:44:13;101099.09;;;13.20;100.00
19128;BME280;9696;53.686;10.094;2023-03-19T08:46:42;101101.66;;;13.59;100.00
19128;BME280;9696;53.686;10.094;2023-03-19T08:49:12;101096.84;;;13.54;100.00
19128;BME280;9696;53.686;10.094;2023-03-19T08:51:41;101100.88;;;13.39;100.00
19128;BME280;9696;53.686;10.094;2023-03-19T08:54:10;101101.56;;;13.51;100.00
19128;BME280;9696;53.686;10.094;2023-03-19T08:56:40;101101.75;;;13.77;100.00
19128;BME280;9696;53.686;10.094;2023-03-19T08:59:09;101092.06;;;13.67;100.00
19128;BME280;9696;53.686;10.094;2023-03-19T09:01:39;101101.31;;;13.81;100.00
19128;BME280;9696;53.686;10.094;2023-03-19T09:04:09;101108.50;;;13.98;100.00
19128;BME280;9696;53.686;10.094;2023-03-19T09:06:38;101104.13;;;14.07;100.00
19128;BME280;9696;53.686;10.094;2023-03-19T09:09:07;101103.06;;;14.27;100.00
19128;BME280;9696;53.686;10.094;2023-03-19T09:11:37;101112.94;;;14.52;100.00
19128;BME280;9696;53.686;10.094;2023-03-19T09:14:06;101116.09;;;14.29;100.00
19128;BME280;9696;53.686;10.094;2023-03-19T09:16:35;101110.97;;;14.54;100.00
19128;BME280;9696;53.686;10.094;2023-03-19T09:19:05;101117.34;;;15.58;100.00
19128;BME280;9696;53.686;10.094;2023-03-19T09:21:35;101127.56;;;15.53;100.00
19128;BME280;9696;53.686;10.094;2023-03-19T09:24:05;101119.09;;;15.67;100.00
19128;BME280;9696;53.686;10.094;2023-03-19T09:26:34;101111.56;;;15.88;100.00
19128;BME280;9696;53.686;10.094;2023-03-19T09:29:03;101112.69;;;15.78;100.00
19128;BME280;9696;53.686;10.094;2023-03-19T09:31:32;101115.31;;;16.03;100.00
19128;BME280;9696;53.686;10.094;2023-03-19T09:34:04;101116.72;;;15.90;100.00
19128;BME280;9696;53.686;10.094;2023-03-19T09:36:36;101112.25;;;17.07;100.00
19128;BME280;9696;53.686;10.094;2023-03-19T09:39:06;101116.72;;;16.32;100.00
19128;BME280;9696;53.686;10.094;2023-03-19T09:41:42;101109.09;;;16.87;100.00
19128;BME280;9696;53.686;10.094;2023-03-19T09:44:13;101112.78;;;17.10;100.00
19128;BME280;9696;53.686;10.094;2023-03-19T09:46:48;101119.06;;;17.01;100.00
19128;BME280;9696;53.686;10.094;2023-03-19T09:49:24;101121.06;;;17.23;100.00
19128;BME280;9696;53.686;10.094;2023-03-19T09:51:56;101117.53;;;16.58;100.00
19128;BME280;9696;53.686;10.094;2023-03-19T09:54:30;101120.84;;;16.18;100.00
19128;BME280;9696;53.686;10.094;2023-03-19T09:57:00;101128.50;;;15.95;100.00
19128;BME280;9696;53.686;10.094;2023-03-19T09:59:29;101137.06;;;15.64;100.00
19128;BME280;9696;53.686;10.094;2023-03-19T10:02:17;101137.69;;;15.83;100.00
19128;BME280;9696;53.686;10.094;2023-03-19T10:05:02;101133.44;;;15.47;100.00
19128;BME280;9696;53.686;10.094;2023-03-19T10:07:53;101140.25;;;15.49;100.00
19128;BME280;9696;53.686;10.094;2023-03-19T10:10:47;101144.53;;;15.94;100.00
19128;BME280;9696;53.686;10.094;2023-03-19T10:13:25;101133.84;;;16.54;100.00
19128;BME280;9696;53.686;10.094;2023-03-19T10:15:58;101138.28;;;16.79;100.00
19128;BME280;9696;53.686;10.094;2023-03-19T10:18:31;101141.59;;;16.97;100.00
19128;BME280;9696;53.686;10.094;2023-03-19T10:21:06;101141.31;;;16.50;100.00
19128;BME280;9696;53.686;10.094;2023-03-19T10:23:43;101135.28;;;17.47;100.00
19128;BME280;9696;53.686;10.094;2023-03-19T10:26:16;101134.16;;;17.41;100.00
19128;BME280;9696;53.686;10.094;2023-03-19T10:28:54;101139.91;;;17.93;100.00
19128;BME280;9696;53.686;10.094;2023-03-19T10:31:28;101139.81;;;17.22;100.00
19128;BME280;9696;53.686;10.094;2023-03-19T10:37:05;101139.25;;;16.36;100.00
19128;BME280;9696;53.686;10.094;2023-03-19T10:39:42;101136.28;;;16.81;100.00
19128;BME280;9696;53.686;10.094;2023-03-19T10:42:36;101136.13;;;16.82;100.00
19128;BME280;9696;53.686;10.094;2023-03-19T10:45:18;101140.25;;;16.85;100.00
19128;BME280;9696;53.686;10.094;2023-03-19T10:47:48;101135.31;;;17.06;100.00
19128;BME280;9696;53.686;10.094;2023-03-19T10:50:22;101134.94;;;16.85;100.00
19128;BME280;9696;53.686;10.094;2023-03-19T10:53:03;101135.25;;;16.66;100.00
19128;BME280;9696;53.686;10.094;2023-03-19T10:55:33;101141.34;;;16.58;100.00
19128;BME280;9696;53.686;10.094;2023-03-19T10:58:05;101142.06;;;16.76;100.00
19128;BME280;9696;53.686;10.094;2023-03-19T11:00:34;101150.56;;;16.46;100.00
19128;BME280;9696;53.686;10.094;2023-03-19T11:03:09;101144.78;;;16.50;100.00
19128;BME280;9696;53.686;10.094;2023-03-19T11:06:03;101151.84;;;16.84;100.00
19128;BME280;9696;53.686;10.094;2023-03-19T11:08:36;101138.78;;;17.23;100.00
19128;BME280;9696;53.686;10.094;2023-03-19T11:11:05;101147.66;;;16.65;100.00
19128;BME280;9696;53.686;10.094;2023-03-19T11:13:35;101141.69;;;16.71;100.00
19128;BME280;9696;53.686;10.094;2023-03-19T11:16:04;101145.09;;;17.46;100.00
19128;BME280;9696;53.686;10.094;2023-03-19T11:18:37;101150.22;;;17.56;100.00
19128;BME280;9696;53.686;10.094;2023-03-19T11:21:20;101146.72;;;17.15;100.00
19128;BME280;9696;53.686;10.094;2023-03-19T11:23:57;101141.75;;;17.52;100.00
19128;BME280;9696;53.686;10.094;2023-03-19T11:26:27;101140.94;;;17.03;100.00
19128;BME280;9696;53.686;10.094;2023-03-19T11:29:02;101149.41;;;16.99;100.00
19128;BME280;9696;53.686;10.094;2023-03-19T11:31:37;101144.88;;;16.75;100.00
19128;BME280;9696;53.686;10.094;2023-03-19T11:34:23;101135.69;;;16.53;100.00
19128;BME280;9696;53.686;10.094;2023-03-19T11:37:05;101134.44;;;16.73;100.00
19128;BME280;9696;53.686;10.094;2023-03-19T11:39:45;101136.13;;;16.40;100.00
19128;BME280;9696;53.686;10.094;2023-03-19T11:42:41;101133.81;;;16.37;100.00
19128;BME280;9696;53.686;10.094;2023-03-19T11:45:19;101135.94;;;16.34;100.00
19128;BME280;9696;53.686;10.094;2023-03-19T11:47:56;101131.50;;;17.65;100.00
19128;BME280;9696;53.686;10.094;2023-03-19T11:50:34;101127.34;;;18.57;100.00
19128;BME280;9696;53.686;10.094;2023-03-19T11:53:16;101138.13;;;17.45;100.00
19128;BME280;9696;53.686;10.094;2023-03-19T11:55:53;101137.81;;;17.32;100.00
19128;BME280;9696;53.686;10.094;2023-03-19T11:58:47;101128.47;;;17.84;100.00
19128;BME280;9696;53.686;10.094;2023-03-19T12:01:38;101130.34;;;17.60;100.00
19128;BME280;9696;53.686;10.094;2023-03-19T12:04:26;101127.41;;;18.02;100.00
19128;BME280;9696;53.686;10.094;2023-03-19T12:07:04;101131.31;;;17.75;100.00
19128;BME280;9696;53.686;10.094;2023-03-19T12:09:42;101130.47;;;17.74;100.00
19128;BME280;9696;53.686;10.094;2023-03-19T12:12:21;101127.34;;;17.71;100.00
19128;BME280;9696;53.686;10.094;2023-03-19T12:15:04;101124.47;;;17.97;100.00
19128;BME280;9696;53.686;10.094;2023-03-19T12:17:45;101132.16;;;17.67;100.00
19128;BME280;9696;53.686;10.094;2023-03-19T12:20:29;101133.00;;;17.27;100.00
19128;BME280;9696;53.686;10.094;2023-03-19T12:23:06;101135.00;;;17.25;100.00
19128;BME280;9696;53.686;10.094;2023-03-19T12:25:54;101128.25;;;16.57;100.00
19128;BME280;9696;53.686;10.094;2023-03-19T12:28:29;101125.84;;;16.95;100.00
19128;BME280;9696;53.686;10.094;2023-03-19T12:34:04;101124.84;;;16.80;100.00
19128;BME280;9696;53.686;10.094;2023-03-19T12:36:44;101115.09;;;16.89;100.00
19128;BME280;9696;53.686;10.094;2023-03-19T12:39:19;101121.19;;;16.73;100.00
19128;BME280;9696;53.686;10.094;2023-03-19T12:41:51;101114.88;;;16.58;100.00
19128;BME280;9696;53.686;10.094;2023-03-19T12:44:27;101117.53;;;16.58;100.00
19128;BME280;9696;53.686;10.094;2023-03-19T12:47:02;101118.16;;;16.60;100.00
19128;BME280;9696;53.686;10.094;2023-03-19T12:49:35;101119.00;;;16.61;100.00
19128;BME280;9696;53.686;10.094;2023-03-19T12:52:14;101125.16;;;16.77;100.00
19128;BME280;9696;53.686;10.094;2023-03-19T12:54:52;101120.22;;;16.90;100.00
19128;BME280;9696;53.686;10.094;2023-03-19T12:57:29;101126.63;;;16.64;100.00
19128;BME280;9696;53.686;10.094;2023-03-19T13:00:06;101120.09;;;16.42;100.00
19128;BME280;9696;53.686;10.094;2023-03-19T13:02:41;101125.19;;;16.27;100.00
19128;BME280;9696;53.686;10.094;2023-03-19T13:05:18;101133.56;;;16.57;100.00
19128;BME280;9696;53.686;10.094;2023-03-19T13:07:59;101126.34;;;16.75;100.00
19128;BME280;9696;53.686;10.094;2023-03-19T13:10:30;101127.28;;;16.58;100.00
19128;BME280;9696;53.686;10.094;2023-03-19T13:13:03;101126.31;;;16.83;100.00
19128;BME280;9696;53.686;10.094;2023-03-19T13:15:38;101126.97;;;16.69;100.00
19128;BME280;9696;53.686;10.094;2023-03-19T13:18:19;101122.22;;;16.38;100.00
19128;BME280;9696;53.686;10.094;2023-03-19T13:21:03;101127.28;;;16.58;100.00
19128;BME280;9696;53.686;10.094;2023-03-19T13:23:39;101128.63;;;16.62;100.00